createdAt,value
2019-04-06T00:01:08.960Z,45.67
2019-04-06T00:03:38.422Z,45.03
2019-04-06T00:06:07.874Z,48.17
2019-04-06T00:08:37.459Z,45.43
2019-04-06T00:11:06.961Z,46.33
2019-04-06T00:13:36.429Z,46.80
2019-04-06T00:16:05.861Z,47.83
2019-04-06T00:18:35.234Z,47.47
2019-04-06T00:21:04.730Z,49.37
2019-04-06T00:23:34.130Z,48.30
2019-04-06T00:26:03.579Z,48.30
2019-04-06T00:28:33.001Z,48.67
2019-04-06T00:31:09.254Z,52.47
2019-04-06T00:33:38.635Z,49.70
2019-04-06T00:36:08.019Z,52.70
2019-04-06T00:38:37.422Z,52.70
2019-04-06T00:41:06.860Z,52.07
2019-04-06T00:43:36.292Z,57.90
2019-04-06T00:46:05.785Z,49.17
2019-04-06T00:48:35.255Z,50.70
2019-04-06T00:51:04.557Z,54.50
2019-04-06T00:53:33.891Z,49.67
2019-04-06T00:56:03.287Z,51.07
2019-04-06T00:58:32.741Z,56.90
2019-04-06T01:01:02.093Z,52.57
2019-04-06T01:03:31.593Z,45.87
2019-04-06T01:06:01.027Z,47.63
2019-04-06T01:08:30.431Z,50.77
2019-04-06T01:10:59.886Z,49.40
2019-04-06T01:13:29.331Z,51.47
2019-04-06T01:15:58.792Z,49.47
2019-04-06T01:18:28.272Z,51.73
2019-04-06T01:20:57.638Z,49.30
2019-04-06T01:23:27.250Z,51.17
2019-04-06T01:26:06.711Z,53.00
2019-04-06T01:28:27.940Z,47.43
2019-04-06T01:30:57.391Z,46.70
2019-04-06T01:33:26.918Z,50.13
2019-04-06T01:35:56.385Z,51.63
2019-04-06T01:38:25.871Z,50.77
2019-04-06T01:40:55.226Z,54.10
2019-04-06T01:43:24.658Z,52.23
2019-04-06T01:45:54.056Z,58.37
2019-04-06T01:48:23.559Z,55.17
2019-04-06T01:50:53.006Z,51.30
2019-04-06T01:53:22.525Z,54.17
2019-04-06T01:55:51.845Z,52.23
2019-04-06T01:58:21.231Z,57.47
2019-04-06T02:01:14.064Z,52.07
2019-04-06T02:03:43.658Z,53.53
2019-04-06T02:06:13.010Z,56.80
2019-04-06T02:08:42.528Z,51.80
2019-04-06T02:11:11.952Z,52.80
2019-04-06T02:13:41.387Z,52.37
2019-04-06T02:16:10.850Z,56.30
2019-04-06T02:18:40.272Z,53.43
2019-04-06T02:21:09.736Z,47.80
2019-04-06T02:23:39.120Z,48.40
2019-04-06T02:26:08.488Z,51.53
2019-04-06T02:28:37.875Z,48.50
2019-04-06T02:31:35.394Z,51.10
2019-04-06T02:34:39.316Z,53.57
2019-04-06T02:37:22.077Z,50.70
2019-04-06T02:39:59.880Z,51.57
2019-04-06T02:42:33.992Z,53.00
2019-04-06T02:45:03.547Z,49.90
2019-04-06T02:47:32.982Z,50.63
2019-04-06T02:50:02.463Z,55.37
2019-04-06T02:52:31.899Z,58.57
2019-04-06T02:55:01.238Z,50.43
2019-04-06T02:57:30.713Z,50.13
2019-04-06T03:00:00.177Z,50.83
2019-04-06T03:02:29.658Z,51.70
2019-04-06T03:04:59.138Z,56.10
2019-04-06T03:07:28.537Z,56.87
2019-04-06T03:09:57.953Z,55.70
2019-04-06T03:12:27.362Z,54.87
2019-04-06T03:14:56.803Z,56.60
2019-04-06T03:17:26.329Z,57.10
2019-04-06T03:19:55.789Z,58.10
2019-04-06T03:22:25.349Z,50.90
2019-04-06T03:24:54.771Z,50.40
2019-04-06T03:27:24.408Z,48.73
2019-04-06T03:29:58.190Z,52.00
2019-04-06T03:32:24.882Z,51.40
2019-04-06T03:34:54.324Z,47.27
2019-04-06T03:37:23.752Z,42.30
2019-04-06T03:39:53.515Z,45.00
2019-04-06T03:42:23.062Z,49.13
2019-04-06T03:44:52.483Z,48.60
2019-04-06T03:47:22.085Z,52.00
2019-04-06T03:49:51.506Z,48.40
2019-04-06T03:52:20.982Z,41.27
2019-04-06T03:54:50.531Z,50.83
2019-04-06T03:57:23.156Z,48.43
2019-04-06T03:59:52.533Z,47.83
2019-04-06T04:02:22.038Z,52.80
2019-04-06T04:04:51.489Z,49.43
2019-04-06T04:07:20.971Z,47.20
2019-04-06T04:09:50.538Z,48.67
2019-04-06T04:12:19.977Z,43.73
2019-04-06T04:14:49.409Z,47.37
2019-04-06T04:17:20.624Z,46.30
2019-04-06T04:19:50.008Z,50.43
2019-04-06T04:22:19.416Z,46.90
2019-04-06T04:24:48.861Z,46.70
2019-04-06T04:27:28.458Z,43.93
2019-04-06T04:29:49.312Z,43.27
2019-04-06T04:32:18.597Z,43.13
2019-04-06T04:34:48.035Z,43.40
2019-04-06T04:37:17.385Z,46.77
2019-04-06T04:39:46.905Z,42.83
2019-04-06T04:42:16.382Z,45.97
2019-04-06T04:44:45.953Z,48.90
2019-04-06T04:47:15.444Z,51.00
2019-04-06T04:49:44.899Z,48.17
2019-04-06T04:52:14.371Z,50.97
2019-04-06T04:54:43.819Z,48.77
2019-04-06T04:57:13.259Z,45.43
2019-04-06T04:59:42.764Z,46.00
2019-04-06T05:02:12.290Z,45.63
2019-04-06T05:04:44.569Z,47.47
2019-04-06T05:07:14.263Z,46.67
2019-04-06T05:09:43.695Z,48.93
2019-04-06T05:12:13.167Z,46.57
2019-04-06T05:15:03.931Z,42.70
2019-04-06T05:17:33.362Z,45.23
2019-04-06T05:20:02.730Z,45.37
2019-04-06T05:22:32.129Z,43.40
2019-04-06T05:25:01.466Z,40.80
2019-04-06T05:27:30.849Z,44.63
2019-04-06T05:30:00.167Z,42.27
2019-04-06T05:32:29.585Z,47.87
2019-04-06T05:34:58.935Z,44.67
2019-04-06T05:37:28.436Z,46.30
2019-04-06T05:39:57.879Z,47.03
2019-04-06T05:42:27.309Z,44.13
2019-04-06T05:44:56.722Z,45.33
2019-04-06T05:47:26.157Z,46.80
2019-04-06T05:49:55.589Z,44.13
2019-04-06T05:52:25.122Z,41.00
2019-04-06T05:54:54.871Z,43.97
2019-04-06T05:57:24.412Z,43.27
2019-04-06T05:59:54.062Z,42.23
2019-04-06T06:02:23.625Z,45.83
2019-04-06T06:04:52.970Z,42.37
2019-04-06T06:07:22.554Z,41.40
2019-04-06T06:09:52.060Z,44.40
2019-04-06T06:12:21.667Z,47.67
2019-04-06T06:14:51.186Z,45.57
2019-04-06T06:17:23.583Z,46.30
2019-04-06T06:19:53.034Z,53.03
2019-04-06T06:22:22.392Z,47.33
2019-04-06T06:24:51.802Z,51.40
2019-04-06T06:27:22.778Z,49.27
2019-04-06T06:29:52.499Z,45.93
2019-04-06T06:32:22.006Z,47.37
2019-04-06T06:34:51.560Z,44.47
2019-04-06T06:37:20.959Z,46.33
2019-04-06T06:39:50.328Z,44.07
2019-04-06T06:42:19.772Z,44.67
2019-04-06T06:44:49.275Z,48.63
2019-04-06T06:47:18.727Z,48.77
2019-04-06T06:49:48.328Z,45.30
2019-04-06T06:52:17.844Z,44.97
2019-04-06T06:54:47.524Z,60.83
2019-04-06T06:57:17.058Z,48.03
2019-04-06T06:59:46.729Z,45.70
2019-04-06T07:02:16.172Z,46.37
2019-04-06T07:04:45.875Z,46.50
2019-04-06T07:07:15.367Z,43.33
2019-04-06T07:09:45.021Z,44.07
2019-04-06T07:12:14.698Z,43.27
2019-04-06T07:14:44.167Z,45.40
2019-04-06T07:17:13.550Z,44.57
2019-04-06T07:19:43.044Z,48.97
2019-04-06T07:22:12.585Z,45.33
2019-04-06T07:24:42.226Z,46.53
2019-04-06T07:27:11.842Z,43.50
2019-04-06T07:29:41.313Z,46.23
2019-04-06T07:32:10.844Z,45.33
2019-04-06T07:34:40.479Z,45.70
2019-04-06T07:37:09.960Z,48.10
2019-04-06T07:39:39.448Z,46.43
2019-04-06T07:42:08.879Z,42.40
2019-04-06T07:44:38.264Z,43.70
2019-04-06T07:47:07.783Z,35.97
2019-04-06T07:49:37.201Z,36.83
2019-04-06T07:52:06.755Z,39.80
2019-04-06T07:54:36.210Z,37.80
2019-04-06T07:57:05.671Z,41.83
2019-04-06T07:59:35.272Z,39.27
2019-04-06T08:02:04.735Z,32.73
2019-04-06T08:04:34.166Z,29.40
2019-04-06T08:07:03.688Z,31.50
2019-04-06T08:09:33.178Z,31.10
2019-04-06T08:12:02.686Z,30.93
2019-04-06T08:14:32.441Z,29.67
2019-04-06T08:17:01.929Z,30.13
2019-04-06T08:19:31.315Z,28.00
2019-04-06T08:22:00.739Z,28.23
2019-04-06T08:24:30.213Z,29.57
2019-04-06T08:26:59.611Z,28.50
2019-04-06T08:29:29.234Z,27.30
2019-04-06T08:31:58.762Z,25.47
2019-04-06T08:34:28.336Z,28.67
2019-04-06T08:36:57.763Z,31.63
2019-04-06T08:39:27.156Z,25.80
2019-04-06T08:41:56.633Z,24.57
2019-04-06T08:44:26.166Z,25.37
2019-04-06T08:46:56.114Z,25.37
2019-04-06T08:49:25.567Z,24.57
2019-04-06T08:51:55.070Z,25.37
2019-04-06T08:54:24.721Z,24.83
2019-04-06T08:56:54.108Z,26.03
2019-04-06T08:59:23.581Z,27.23
2019-04-06T09:01:52.982Z,27.23
2019-04-06T09:04:22.561Z,27.00
2019-04-06T09:06:52.190Z,27.13
2019-04-06T09:09:21.692Z,25.97
2019-04-06T09:11:51.056Z,26.93
2019-04-06T09:14:20.545Z,25.67
2019-04-06T09:16:50.018Z,25.87
2019-04-06T09:19:19.638Z,23.70
2019-04-06T09:21:49.167Z,24.73
2019-04-06T09:24:18.729Z,22.00
2019-04-06T09:26:48.869Z,23.13
2019-04-06T09:29:23.860Z,21.93
2019-04-06T09:31:49.484Z,21.33
2019-04-06T09:34:18.973Z,22.67
2019-04-06T09:36:48.489Z,24.87
2019-04-06T09:39:18.208Z,22.13
2019-04-06T09:41:47.719Z,22.53
2019-04-06T09:44:29.807Z,21.00
2019-04-06T09:47:01.475Z,22.30
2019-04-06T09:49:49.945Z,22.73
2019-04-06T09:52:37.519Z,24.53
2019-04-06T09:55:25.313Z,23.43
2019-04-06T09:58:11.242Z,20.43
2019-04-06T10:00:51.579Z,23.80
2019-04-06T10:03:39.911Z,20.37
2019-04-06T10:06:20.216Z,19.90
2019-04-06T10:09:05.019Z,19.27
2019-04-06T10:11:56.670Z,21.80
2019-04-06T10:14:39.667Z,19.80
2019-04-06T10:17:28.391Z,19.90
2019-04-06T10:20:16.794Z,20.83
2019-04-06T10:22:57.667Z,20.23
2019-04-06T10:25:48.608Z,22.27
2019-04-06T10:28:37.193Z,19.23
2019-04-06T10:31:24.969Z,18.73
2019-04-06T10:34:22.910Z,20.30
2019-04-06T10:37:23.513Z,19.67
2019-04-06T10:40:00.176Z,17.43
2019-04-06T10:42:47.109Z,18.77
2019-04-06T10:45:35.777Z,15.73
2019-04-06T10:48:27.161Z,15.87
2019-04-06T10:51:18.415Z,17.90
2019-04-06T10:54:15.854Z,14.57
2019-04-06T10:57:00.461Z,15.83
2019-04-06T11:00:02.326Z,14.47
2019-04-06T11:02:44.030Z,12.37
2019-04-06T11:05:25.361Z,12.40
2019-04-06T11:08:05.980Z,13.67
2019-04-06T11:10:48.587Z,12.47
2019-04-06T11:13:55.635Z,12.50
2019-04-06T11:16:40.868Z,11.43
2019-04-06T11:19:31.434Z,12.63
2019-04-06T11:22:10.245Z,12.57
2019-04-06T11:24:57.445Z,12.40
2019-04-06T11:27:33.432Z,11.93
2019-04-06T11:30:13.593Z,11.40
2019-04-06T11:33:07.077Z,12.60
2019-04-06T11:35:54.341Z,12.03
2019-04-06T11:38:55.062Z,11.93
2019-04-06T11:41:39.015Z,12.63
2019-04-06T11:44:16.329Z,12.03
2019-04-06T11:47:03.981Z,12.10
2019-04-06T11:49:58.521Z,14.60
2019-04-06T11:53:02.325Z,13.67
2019-04-06T11:55:48.256Z,13.30
2019-04-06T11:58:39.500Z,12.90
2019-04-06T12:01:29.384Z,12.63
2019-04-06T12:04:11.756Z,11.13
2019-04-06T12:07:03.317Z,10.60
2019-04-06T12:09:55.054Z,11.50
2019-04-06T12:12:41.879Z,11.90
2019-04-06T12:15:31.761Z,12.27
2019-04-06T12:18:29.496Z,12.90
2019-04-06T12:21:23.985Z,11.53
2019-04-06T12:24:15.714Z,10.90
2019-04-06T12:27:02.716Z,11.27
2019-04-06T12:29:50.212Z,11.03
2019-04-06T12:32:33.003Z,10.43
2019-04-06T12:35:33.916Z,11.13
2019-04-06T12:38:28.435Z,11.00
2019-04-06T12:41:12.788Z,10.40
2019-04-06T12:43:59.986Z,11.40
2019-04-06T12:46:45.168Z,26.17
2019-04-06T12:49:33.550Z,10.87
2019-04-06T12:52:31.252Z,11.77
2019-04-06T12:55:19.640Z,11.90
2019-04-06T12:58:26.388Z,11.90
2019-04-06T13:01:20.393Z,12.17
2019-04-06T13:04:08.445Z,13.23
2019-04-06T13:06:55.758Z,11.90
2019-04-06T13:10:02.593Z,12.40
2019-04-06T13:12:42.273Z,10.90
2019-04-06T13:15:34.510Z,11.80
2019-04-06T13:18:12.496Z,11.90
2019-04-06T13:21:10.366Z,11.87
2019-04-06T13:24:08.006Z,12.43
2019-04-06T13:26:55.233Z,11.30
2019-04-06T13:29:43.643Z,11.40
2019-04-06T13:32:34.686Z,12.00
2019-04-06T13:35:25.285Z,11.40
2019-04-06T13:38:16.535Z,11.97
2019-04-06T13:41:15.896Z,12.50
2019-04-06T13:44:13.841Z,10.80
2019-04-06T13:47:08.171Z,10.10
2019-04-06T13:50:05.676Z,11.30
2019-04-06T13:52:52.742Z,11.30
2019-04-06T13:55:50.202Z,11.53
2019-04-06T13:58:25.794Z,12.63
2019-04-06T14:01:16.866Z,11.67
2019-04-06T14:04:08.998Z,11.03
2019-04-06T14:06:54.844Z,9.67
2019-04-06T14:09:52.347Z,12.80
2019-04-06T14:12:58.838Z,11.37
2019-04-06T14:15:50.173Z,10.17
2019-04-06T14:18:41.856Z,11.50
2019-04-06T14:21:33.199Z,12.40
2019-04-06T14:24:18.601Z,11.20
2019-04-06T14:27:06.065Z,9.23
2019-04-06T14:29:57.279Z,9.47
2019-04-06T14:32:34.540Z,10.40
2019-04-06T14:35:10.153Z,9.13
2019-04-06T14:37:59.037Z,9.33
2019-04-06T14:40:53.503Z,11.93
2019-04-06T14:43:39.612Z,9.80
2019-04-06T14:46:28.060Z,9.53
2019-04-06T14:49:28.441Z,9.33
2019-04-06T14:52:24.630Z,10.27
2019-04-06T14:55:13.251Z,11.40
2019-04-06T14:58:13.988Z,12.70
2019-04-06T15:01:02.983Z,11.73
2019-04-06T15:04:04.012Z,12.97
2019-04-06T15:06:55.450Z,12.87
2019-04-06T15:09:38.920Z,11.73
2019-04-06T15:12:27.299Z,12.63
2019-04-06T15:15:04.045Z,11.97
2019-04-06T15:17:48.157Z,12.07
2019-04-06T15:20:26.043Z,11.27
2019-04-06T15:23:09.628Z,13.87
2019-04-06T15:25:58.001Z,12.70
2019-04-06T15:28:43.261Z,12.20
2019-04-06T15:31:33.443Z,11.93
2019-04-06T15:34:23.046Z,11.10
2019-04-06T15:37:12.497Z,14.07
2019-04-06T15:40:07.344Z,12.10
2019-04-06T15:42:42.609Z,10.47
2019-04-06T15:45:34.130Z,11.10
2019-04-06T15:48:13.287Z,10.33
2019-04-06T15:51:00.564Z,11.17
2019-04-06T15:53:45.580Z,10.47
2019-04-06T15:56:27.421Z,9.03
2019-04-06T15:59:14.704Z,8.43
2019-04-06T16:02:05.953Z,8.03
2019-04-06T16:04:50.950Z,8.57
2019-04-06T16:07:38.145Z,9.10
2019-04-06T16:10:24.936Z,7.33
2019-04-06T16:13:13.410Z,7.03
2019-04-06T16:16:01.768Z,7.33
2019-04-06T16:18:59.368Z,7.47
2019-04-06T16:21:35.906Z,7.30
2019-04-06T16:24:23.201Z,7.07
2019-04-06T16:27:10.543Z,7.57
2019-04-06T16:30:11.083Z,8.07
2019-04-06T16:33:14.900Z,6.10
2019-04-06T16:35:55.958Z,11.80
2019-04-06T16:38:50.873Z,6.83
2019-04-06T16:41:39.268Z,5.23
2019-04-06T16:44:14.082Z,5.43
2019-04-06T16:47:08.295Z,7.57
2019-04-06T16:49:47.661Z,4.07
2019-04-06T16:52:34.771Z,3.87
2019-04-06T16:55:32.254Z,3.77
2019-04-06T16:58:32.915Z,4.10
2019-04-06T17:01:09.731Z,3.53
2019-04-06T17:03:47.851Z,3.27
2019-04-06T17:06:45.459Z,3.50
2019-04-06T17:09:49.391Z,4.07
2019-04-06T17:12:43.687Z,2.50
2019-04-06T17:15:22.343Z,3.13
2019-04-06T17:18:19.922Z,3.20
2019-04-06T17:21:08.394Z,2.77
2019-04-06T17:23:48.193Z,2.60
2019-04-06T17:26:40.064Z,2.83
2019-04-06T17:29:31.764Z,4.70
2019-04-06T17:32:14.750Z,3.43
2019-04-06T17:35:03.034Z,4.57
2019-04-06T17:37:48.134Z,6.67
2019-04-06T17:40:41.485Z,6.37
2019-04-06T17:43:33.005Z,3.60
2019-04-06T17:46:29.929Z,5.37
2019-04-06T17:49:16.985Z,5.40
2019-04-06T17:52:06.509Z,3.03
2019-04-06T17:54:53.624Z,3.30
2019-04-06T17:57:42.046Z,3.50
2019-04-06T18:00:27.817Z,6.27
2019-04-06T18:03:28.510Z,4.33
2019-04-06T18:06:29.316Z,4.50
2019-04-06T18:09:26.859Z,4.20
2019-04-06T18:12:09.037Z,4.77
2019-04-06T18:14:38.533Z,4.50
2019-04-06T18:17:08.114Z,4.63
2019-04-06T18:19:37.667Z,4.57
2019-04-06T18:22:07.151Z,5.33
2019-04-06T18:24:36.831Z,5.40
2019-04-06T18:27:06.442Z,4.70
2019-04-06T18:29:36.414Z,7.73
2019-04-06T18:32:21.154Z,6.17
2019-04-06T18:34:50.656Z,6.13
2019-04-06T18:37:39.064Z,6.40
2019-04-06T18:40:19.350Z,4.57
2019-04-06T18:42:48.857Z,5.70
2019-04-06T18:45:18.350Z,6.00
2019-04-06T18:47:47.919Z,5.37
2019-04-06T18:50:17.801Z,4.53
2019-04-06T18:52:47.570Z,4.17
2019-04-06T18:55:17.088Z,6.23
2019-04-06T18:57:46.957Z,3.87
2019-04-06T19:00:17.373Z,6.47
2019-04-06T19:02:46.926Z,6.23
2019-04-06T19:05:16.648Z,6.53
2019-04-06T19:07:46.266Z,3.70
2019-04-06T19:10:16.379Z,4.73
2019-04-06T19:12:46.215Z,7.40
2019-04-06T19:15:16.107Z,8.23
2019-04-06T19:17:46.134Z,5.63
2019-04-06T19:20:16.019Z,7.63
2019-04-06T19:22:45.568Z,4.50
2019-04-06T19:25:15.331Z,6.10
2019-04-06T19:27:44.917Z,4.33
2019-04-06T19:30:18.118Z,3.60
2019-04-06T19:32:48.284Z,3.90
2019-04-06T19:35:17.827Z,5.05
2019-04-06T19:37:47.597Z,4.23
2019-04-06T19:40:17.778Z,5.73
2019-04-06T19:42:47.301Z,4.87
2019-04-06T19:45:16.966Z,5.00
2019-04-06T19:47:46.444Z,4.73
2019-04-06T19:50:16.378Z,6.47
2019-04-06T19:52:45.917Z,6.17
2019-04-06T19:55:15.516Z,5.30
2019-04-06T19:57:45.295Z,8.13
2019-04-06T20:00:15.181Z,6.70
2019-04-06T20:02:44.756Z,5.30
2019-04-06T20:05:14.271Z,4.17
2019-04-06T20:07:43.712Z,3.93
2019-04-06T20:10:13.326Z,4.30
2019-04-06T20:12:42.765Z,5.07
2019-04-06T20:15:13.253Z,8.23
2019-04-06T20:17:42.858Z,4.53
2019-04-06T20:20:13.095Z,4.80
2019-04-06T20:22:42.657Z,8.13
2019-04-06T20:25:12.714Z,5.60
2019-04-06T20:27:42.240Z,4.90
2019-04-06T20:30:12.247Z,9.37
2019-04-06T20:32:41.773Z,5.60
2019-04-06T20:35:11.947Z,4.73
2019-04-06T20:37:41.516Z,4.10
2019-04-06T20:40:11.844Z,5.60
2019-04-06T20:42:41.629Z,4.30
2019-04-06T20:45:11.406Z,4.13
2019-04-06T20:47:40.912Z,4.63
2019-04-06T20:50:10.586Z,4.97
2019-04-06T20:52:40.605Z,4.77
2019-04-06T20:55:11.158Z,4.67
2019-04-06T20:57:41.086Z,4.13
2019-04-06T21:00:11.073Z,4.80
2019-04-06T21:02:40.606Z,4.83
2019-04-06T21:05:10.568Z,4.73
2019-04-06T21:07:40.471Z,5.47
2019-04-06T21:10:10.945Z,5.97
2019-04-06T21:12:40.508Z,5.37
2019-04-06T21:15:18.916Z,6.20
2019-04-06T21:17:41.391Z,5.13
2019-04-06T21:20:11.112Z,6.07
2019-04-06T21:22:40.834Z,5.13
2019-04-06T21:25:11.209Z,6.20
2019-04-06T21:27:43.149Z,5.73
2019-04-06T21:30:12.345Z,5.17
2019-04-06T21:32:42.413Z,5.03
2019-04-06T21:35:12.556Z,5.67
2019-04-06T21:37:42.046Z,5.07
2019-04-06T21:40:11.911Z,4.47
2019-04-06T21:42:41.350Z,4.90
2019-04-06T21:45:11.327Z,4.97
2019-04-06T21:47:40.879Z,4.80
2019-04-06T21:50:10.418Z,4.97
2019-04-06T21:52:40.422Z,4.50
2019-04-06T21:55:13.825Z,4.70
2019-04-06T21:57:43.346Z,4.90
2019-04-06T22:00:16.741Z,4.50
2019-04-06T22:02:46.995Z,5.87
2019-04-06T22:05:17.109Z,4.50
2019-04-06T22:07:49.537Z,5.33
2019-04-06T22:10:18.185Z,6.50
2019-04-06T22:12:48.059Z,5.87
2019-04-06T22:15:18.102Z,7.40
2019-04-06T22:17:47.835Z,4.50
2019-04-06T22:20:17.610Z,5.20
2019-04-06T22:22:47.360Z,5.63
2019-04-06T22:25:16.828Z,4.87
2019-04-06T22:27:46.328Z,5.03
2019-04-06T22:30:18.718Z,9.43
2019-04-06T22:32:48.126Z,5.03
2019-04-06T22:35:18.019Z,4.97
2019-04-06T22:37:47.535Z,5.33
2019-04-06T22:40:18.046Z,4.90
2019-04-06T22:42:47.814Z,4.93
2019-04-06T22:45:19.649Z,4.90
2019-04-06T22:47:49.091Z,6.27
2019-04-06T22:50:18.838Z,5.33
2019-04-06T22:52:48.351Z,5.40
2019-04-06T22:55:17.784Z,7.47
2019-04-06T22:57:47.727Z,5.47
2019-04-06T23:00:32.737Z,5.57
2019-04-06T23:03:30.783Z,5.83
2019-04-06T23:06:04.003Z,5.83
2019-04-06T23:08:33.856Z,5.03
2019-04-06T23:11:03.517Z,58.57
2019-04-06T23:13:33.392Z,18.03
2019-04-06T23:16:02.932Z,4.87
2019-04-06T23:19:04.054Z,32.20
2019-04-06T23:21:33.033Z,5.37
2019-04-06T23:24:14.653Z,7.43
2019-04-06T23:26:56.769Z,9.07
2019-04-06T23:29:38.498Z,7.80
2019-04-06T23:32:20.423Z,5.50
2019-04-06T23:35:02.548Z,29.33
2019-04-06T23:37:45.882Z,7.97
2019-04-06T23:40:28.267Z,11.37
2019-04-06T23:43:09.812Z,5.40
2019-04-06T23:45:51.567Z,39.57
2019-04-06T23:48:32.965Z,7.33
2019-04-06T23:51:14.515Z,7.63
2019-04-06T23:53:56.230Z,7.00
2019-04-06T23:56:40.588Z,7.67
2019-04-06T23:59:22.220Z,5.60
